sensor_id;sensor_type;location;lat;lon;timestamp;pressure;altitude;pressure_sealevel;temperature;humidity
12676;BME280;63820;65.654;21.944;2023-03-18T00:00:00;101140.22;;;-2.19;100.00
12676;BME280;63820;65.654;21.944;2023-03-18T00:02:46;101125.81;;;-2.19;100.00
12676;BME280;63820;65.654;21.944;2023-03-18T00:05:30;101123.34;;;-2.14;100.00
12676;BME280;63820;65.654;21.944;2023-03-18T00:08:15;101132.59;;;-2.19;100.00
12676;BME280;63820;65.654;21.944;2023-03-18T00:11:00;101122.50;;;-2.13;100.00
12676;BME280;63820;65.654;21.944;2023-03-18T00:13:45;101125.88;;;-2.16;100.00
12676;BME280;63820;65.654;21.944;2023-03-18T00:16:29;101121.75;;;-2.09;100.00
12676;BME280;63820;65.654;21.944;2023-03-18T00:19:13;101098.75;;;-2.12;100.00
12676;BME280;63820;65.654;21.944;2023-03-18T00:21:58;101112.41;;;-2.07;100.00
12676;BME280;63820;65.654;21.944;2023-03-18T00:24:42;101097.13;;;-2.06;100.00
12676;BME280;63820;65.654;21.944;2023-03-18T00:27:26;101092.03;;;-2.06;100.00
12676;BME280;63820;65.654;21.944;2023-03-18T00:30:13;101097.13;;;-2.06;100.00
12676;BME280;63820;65.654;21.944;2023-03-18T00:32:57;101092.03;;;-2.06;100.00
12676;BME280;63820;65.654;21.944;2023-03-18T00:35:43;101096.22;;;-2.11;100.00
12676;BME280;63820;65.654;21.944;2023-03-18T00:38:31;101077.47;;;-2.14;100.00
12676;BME280;63820;65.654;21.944;2023-03-18T00:41:16;101101.25;;;-2.15;100.00
12676;BME280;63820;65.654;21.944;2023-03-18T00:44:01;101070.72;;;-2.12;100.00
12676;BME280;63820;65.654;21.944;2023-03-18T00:46:46;101070.59;;;-2.18;100.00
12676;BME280;63820;65.654;21.944;2023-03-18T00:49:30;101072.34;;;-2.16;100.00
12676;BME280;63820;65.654;21.944;2023-03-18T00:52:14;101055.41;;;-2.14;100.00
12676;BME280;63820;65.654;21.944;2023-03-18T00:54:59;101057.81;;;-2.21;100.00
12676;BME280;63820;65.654;21.944;2023-03-18T00:57:43;101041.72;;;-2.19;100.00
12676;BME280;63820;65.654;21.944;2023-03-18T01:00:27;101039.91;;;-2.24;100.00
12676;BME280;63820;65.654;21.944;2023-03-18T01:03:13;101022.97;;;-2.22;100.00
12676;BME280;63820;65.654;21.944;2023-03-18T01:05:57;101022.97;;;-2.22;100.00
12676;BME280;63820;65.654;21.944;2023-03-18T01:08:42;101022.06;;;-2.26;100.00
12676;BME280;63820;65.654;21.944;2023-03-18T01:11:27;101001.78;;;-2.18;100.00
12676;BME280;63820;65.654;21.944;2023-03-18T01:14:12;100999.13;;;-2.26;100.00
12676;BME280;63820;65.654;21.944;2023-03-18T01:16:56;100992.31;;;-2.27;100.00
12676;BME280;63820;65.654;21.944;2023-03-18T01:19:41;100973.63;;;-2.27;100.00
12676;BME280;63820;65.654;21.944;2023-03-18T01:22:26;100975.31;;;-2.26;100.00
12676;BME280;63820;65.654;21.944;2023-03-18T01:25:11;100958.41;;;-2.23;100.00
12676;BME280;63820;65.654;21.944;2023-03-18T01:27:56;100960.09;;;-2.23;100.00
12676;BME280;63820;65.654;21.944;2023-03-18T01:30:41;100943.94;;;-2.24;100.00
12676;BME280;63820;65.654;21.944;2023-03-18T01:33:25;100935.50;;;-2.21;100.00
12676;BME280;63820;65.654;21.944;2023-03-18T01:36:10;100932.91;;;-2.24;100.00
12676;BME280;63820;65.654;21.944;2023-03-18T01:38:55;100927.00;;;-2.22;100.00
12676;BME280;63820;65.654;21.944;2023-03-18T01:41:40;100918.50;;;-2.21;100.00
12676;BME280;63820;65.654;21.944;2023-03-18T01:44:26;100910.88;;;-2.19;100.00
12676;BME280;63820;65.654;21.944;2023-03-18T01:47:10;100916.91;;;-2.14;100.00
12676;BME280;63820;65.654;21.944;2023-03-18T01:49:55;100894.06;;;-2.10;100.00
12676;BME280;63820;65.654;21.944;2023-03-18T01:52:39;100888.06;;;-2.12;100.00
12676;BME280;63820;65.654;21.944;2023-03-18T01:55:27;100880.47;;;-2.07;100.00
12676;BME280;63820;65.654;21.944;2023-03-18T01:58:35;100881.38;;;-2.04;100.00
12676;BME280;63820;65.654;21.944;2023-03-18T02:01:27;100869.44;;;-2.05;100.00
12676;BME280;63820;65.654;21.944;2023-03-18T02:04:15;100855.03;;;-2.03;100.00
12676;BME280;63820;65.654;21.944;2023-03-18T02:07:00;100866.13;;;-2.01;100.00
12676;BME280;63820;65.654;21.944;2023-03-18T02:09:46;100861.00;;;-2.01;100.00
12676;BME280;63820;65.654;21.944;2023-03-18T02:12:34;100861.00;;;-2.02;100.00
12676;BME280;63820;65.654;21.944;2023-03-18T02:15:21;100861.00;;;-2.01;100.00
12676;BME280;63820;65.654;21.944;2023-03-18T02:18:10;100852.56;;;-1.97;100.00
12676;BME280;63820;65.654;21.944;2023-03-18T02:26:56;100831.34;;;-1.95;100.00
12676;BME280;63820;65.654;21.944;2023-03-18T02:29:42;100817.75;;;-1.96;100.00
12676;BME280;63820;65.654;21.944;2023-03-18T02:32:29;100825.31;;;-2.01;100.00
12676;BME280;63820;65.654;21.944;2023-03-18T02:35:14;100812.66;;;-1.96;100.00
12676;BME280;63820;65.654;21.944;2023-03-18T02:37:59;100816.03;;;-1.97;100.00
12676;BME280;63820;65.654;21.944;2023-03-18T02:40:43;100812.66;;;-1.96;100.00
12676;BME280;63820;65.654;21.944;2023-03-18T02:43:29;100796.56;;;-1.92;100.00
12676;BME280;63820;65.654;21.944;2023-03-18T02:46:48;100782.91;;;-1.95;100.00
12676;BME280;63820;65.654;21.944;2023-03-18T02:49:25;100784.63;;;-1.94;100.00
12676;BME280;63820;65.654;21.944;2023-03-18T02:52:10;100782.09;;;-1.93;100.00
12676;BME280;63820;65.654;21.944;2023-03-18T02:54:54;100771.91;;;-1.93;100.00
12676;BME280;63820;65.654;21.944;2023-03-18T02:57:41;100754.94;;;-1.89;100.00
12676;BME280;63820;65.654;21.944;2023-03-18T03:00:25;100757.50;;;-1.88;100.00
12676;BME280;63820;65.654;21.944;2023-03-18T03:03:10;100749.00;;;-1.88;100.00
12676;BME280;63820;65.654;21.944;2023-03-18T03:05:54;100737.09;;;-1.91;100.00
12676;BME280;63820;65.654;21.944;2023-03-18T03:08:39;100736.25;;;-1.90;100.00
12676;BME280;63820;65.654;21.944;2023-03-18T03:11:24;100733.75;;;-1.85;100.00
12676;BME280;63820;65.654;21.944;2023-03-18T03:14:09;100718.44;;;-1.85;100.00
12676;BME280;63820;65.654;21.944;2023-03-18T03:16:54;100725.22;;;-1.87;100.00
12676;BME280;63820;65.654;21.944;2023-03-18T03:19:37;100720.13;;;-1.87;100.00
12676;BME280;63820;65.654;21.944;2023-03-18T03:22:22;100715.88;;;-1.87;100.00
12676;BME280;63820;65.654;21.944;2023-03-18T03:25:08;100710.78;;;-1.87;100.00
12676;BME280;63820;65.654;21.944;2023-03-18T03:27:52;100709.91;;;-1.90;100.00
12676;BME280;63820;65.654;21.944;2023-03-18T03:30:37;100714.16;;;-1.89;100.00
12676;BME280;63820;65.654;21.944;2023-03-18T03:33:22;100682.75;;;-1.87;100.00
12676;BME280;63820;65.654;21.944;2023-03-18T03:36:15;100692.94;;;-1.88;100.00
12676;BME280;63820;65.654;21.944;2023-03-18T03:39:00;100680.19;;;-1.87;100.00
12676;BME280;63820;65.654;21.944;2023-03-18T03:41:44;100669.16;;;-1.84;100.00
12676;BME280;63820;65.654;21.944;2023-03-18T03:44:28;100679.41;;;-1.81;100.00
12676;BME280;63820;65.654;21.944;2023-03-18T03:47:13;100681.13;;;-1.80;100.00
12676;BME280;63820;65.654;21.944;2023-03-18T03:49:57;100671.75;;;-1.81;100.00
12676;BME280;63820;65.654;21.944;2023-03-18T03:52:41;100664.09;;;-1.83;100.00
12676;BME280;63820;65.654;21.944;2023-03-18T03:55:26;100650.53;;;-1.77;100.00
12676;BME280;63820;65.654;21.944;2023-03-18T03:58:11;100639.53;;;-1.75;100.00
12676;BME280;63820;65.654;21.944;2023-03-18T04:00:54;100643.75;;;-1.77;100.00
12676;BME280;63820;65.654;21.944;2023-03-18T04:03:39;100639.53;;;-1.75;100.00
12676;BME280;63820;65.654;21.944;2023-03-18T04:06:24;100637.81;;;-1.74;100.00
12676;BME280;63820;65.654;21.944;2023-03-18T04:09:08;100633.59;;;-1.72;100.00
12676;BME280;63820;65.654;21.944;2023-03-18T04:11:53;100625.94;;;-1.72;100.00
12676;BME280;63820;65.654;21.944;2023-03-18T04:14:37;100620.00;;;-1.71;100.00
12676;BME280;63820;65.654;21.944;2023-03-18T04:17:22;100610.69;;;-1.68;100.00
12676;BME280;63820;65.654;21.944;2023-03-18T04:20:07;100603.06;;;-1.63;100.00
12676;BME280;63820;65.654;21.944;2023-03-18T04:22:52;100586.91;;;-1.65;100.00
12676;BME280;63820;65.654;21.944;2023-03-18T04:25:36;100586.88;;;-1.68;100.00
12676;BME280;63820;65.654;21.944;2023-03-18T04:28:20;100586.06;;;-1.64;100.00
12676;BME280;63820;65.654;21.944;2023-03-18T04:31:04;100580.13;;;-1.63;100.00
12676;BME280;63820;65.654;21.944;2023-03-18T04:33:48;100564.81;;;-1.63;100.00
12676;BME280;63820;65.654;21.944;2023-03-18T04:36:32;100570.78;;;-1.59;100.00
12676;BME280;63820;65.654;21.944;2023-03-18T04:39:16;100562.31;;;-1.58;100.00
12676;BME280;63820;65.654;21.944;2023-03-18T04:42:01;100552.94;;;-1.59;100.00
12676;BME280;63820;65.654;21.944;2023-03-18T04:44:45;100558.06;;;-1.56;100.00
12676;BME280;63820;65.654;21.944;2023-03-18T04:47:29;100541.94;;;-1.54;100.00
12676;BME280;63820;65.654;21.944;2023-03-18T04:50:15;100536.91;;;-1.45;100.00
12676;BME280;63820;65.654;21.944;2023-03-18T04:53:00;100525.00;;;-1.41;100.00
12676;BME280;63820;65.654;21.944;2023-03-18T04:55:44;100514.00;;;-1.36;100.00
12676;BME280;63820;65.654;21.944;2023-03-18T04:58:29;100503.81;;;-1.28;100.00
12676;BME280;63820;65.654;21.944;2023-03-18T05:01:13;100497.03;;;-1.23;100.00
12676;BME280;63820;65.654;21.944;2023-03-18T05:03:58;100498.75;;;-1.19;100.00
12676;BME280;63820;65.654;21.944;2023-03-18T05:06:42;100483.47;;;-1.13;100.00
12676;BME280;63820;65.654;21.944;2023-03-18T05:09:26;100491.16;;;-1.11;100.00
12676;BME280;63820;65.654;21.944;2023-03-18T05:12:14;100462.22;;;-1.07;100.00
12676;BME280;63820;65.654;21.944;2023-03-18T05:14:58;100464.78;;;-1.10;100.00
12676;BME280;63820;65.654;21.944;2023-03-18T05:17:42;100463.94;;;-1.09;100.00
12676;BME280;63820;65.654;21.944;2023-03-18T05:20:27;100457.97;;;-1.10;100.00
12676;BME280;63820;65.654;21.944;2023-03-18T05:23:11;100445.22;;;-1.05;100.00
12676;BME280;63820;65.654;21.944;2023-03-18T05:25:56;100435.84;;;-1.00;100.00
12676;BME280;63820;65.654;21.944;2023-03-18T05:28:40;100426.50;;;-1.07;100.00
12676;BME280;63820;65.654;21.944;2023-03-18T05:31:25;100422.25;;;-0.98;100.00
12676;BME280;63820;65.654;21.944;2023-03-18T05:34:09;100412.00;;;-1.02;100.00
12676;BME280;63820;65.654;21.944;2023-03-18T05:36:53;100396.72;;;-0.98;100.00
12676;BME280;63820;65.654;21.944;2023-03-18T05:39:38;100406.06;;;-0.96;100.00
12676;BME280;63820;65.654;21.944;2023-03-18T05:42:22;100400.13;;;-0.97;100.00
12676;BME280;63820;65.654;21.944;2023-03-18T05:45:07;100382.25;;;-0.97;100.00
12676;BME280;63820;65.654;21.944;2023-03-18T05:47:52;100377.16;;;-0.94;100.00
12676;BME280;63820;65.654;21.944;2023-03-18T05:50:39;100378.00;;;-0.95;100.00
12676;BME280;63820;65.654;21.944;2023-03-18T05:53:24;100366.94;;;-0.91;100.00
12676;BME280;63820;65.654;21.944;2023-03-18T05:56:09;100363.53;;;-0.87;100.00
12676;BME280;63820;65.654;21.944;2023-03-18T05:58:55;100372.91;;;-0.84;100.00
12676;BME280;63820;65.654;21.944;2023-03-18T06:01:39;100380.56;;;-0.80;100.00
12676;BME280;63820;65.654;21.944;2023-03-18T06:04:24;100363.53;;;-0.84;100.00
12676;BME280;63820;65.654;21.944;2023-03-18T06:07:10;100353.31;;;-0.84;100.00
12676;BME280;63820;65.654;21.944;2023-03-18T06:09:55;100355.03;;;-0.81;100.00
12676;BME280;63820;65.654;21.944;2023-03-18T06:12:39;100355.03;;;-0.77;100.00
12676;BME280;63820;65.654;21.944;2023-03-18T06:15:24;100341.41;;;-0.76;100.00
12676;BME280;63820;65.654;21.944;2023-03-18T06:18:08;100344.81;;;-0.72;100.00
12676;BME280;63820;65.654;21.944;2023-03-18T06:20:52;100343.13;;;-0.75;100.00
12676;BME280;63820;65.654;21.944;2023-03-18T06:23:36;100325.25;;;-0.76;100.00
12676;BME280;63820;65.654;21.944;2023-03-18T06:26:21;100333.75;;;-0.77;100.00
12676;BME280;63820;65.654;21.944;2023-03-18T06:29:05;100328.66;;;-0.73;100.00
12676;BME280;63820;65.654;21.944;2023-03-18T06:31:50;100316.72;;;-0.71;100.00
12676;BME280;63820;65.654;21.944;2023-03-18T06:34:35;100308.22;;;-0.65;100.00
12676;BME280;63820;65.654;21.944;2023-03-18T06:37:19;100319.28;;;-0.68;100.00
12676;BME280;63820;65.654;21.944;2023-03-18T06:40:06;100300.56;;;-0.67;100.00
12676;BME280;63820;65.654;21.944;2023-03-18T06:42:51;100295.44;;;-0.63;100.00
12676;BME280;63820;65.654;21.944;2023-03-18T06:45:36;100297.16;;;-0.62;100.00
12676;BME280;63820;65.654;21.944;2023-03-18T06:48:21;100281.81;;;-0.59;100.00
12676;BME280;63820;65.654;21.944;2023-03-18T06:51:06;100286.06;;;-0.58;100.00
12676;BME280;63820;65.654;21.944;2023-03-18T06:53:50;100274.16;;;-0.58;100.00
12676;BME280;63820;65.654;21.944;2023-03-18T06:56:36;100257.97;;;-0.55;100.00
12676;BME280;63820;65.654;21.944;2023-03-18T06:59:22;100261.38;;;-0.55;100.00
12676;BME280;63820;65.654;21.944;2023-03-18T07:02:09;100251.16;;;-0.53;100.00
12676;BME280;63820;65.654;21.944;2023-03-18T07:04:53;100238.38;;;-0.52;100.00
12676;BME280;63820;65.654;21.944;2023-03-18T07:07:39;100234.13;;;-0.48;100.00
12676;BME280;63820;65.654;21.944;2023-03-18T07:10:26;100230.69;;;-0.47;100.00
12676;BME280;63820;65.654;21.944;2023-03-18T07:13:10;100219.63;;;-0.43;100.00
12676;BME280;63820;65.654;21.944;2023-03-18T07:15:56;100204.28;;;-0.37;100.00
12676;BME280;63820;65.654;21.944;2023-03-18T07:18:41;100220.44;;;-0.32;100.00
12676;BME280;63820;65.654;21.944;2023-03-18T07:21:25;100217.88;;;-0.29;100.00
12676;BME280;63820;65.654;21.944;2023-03-18T07:24:11;100194.88;;;-0.27;100.00
12676;BME280;63820;65.654;21.944;2023-03-18T07:26:56;100192.28;;;-0.24;100.00
12676;BME280;63820;65.654;21.944;2023-03-18T07:29:40;100201.66;;;-0.22;100.00
12676;BME280;63820;65.654;21.944;2023-03-18T07:32:25;100194.84;;;-0.21;100.00
12676;BME280;63820;65.654;21.944;2023-03-18T07:35:09;100188.00;;;-0.19;100.00
12676;BME280;63820;65.654;21.944;2023-03-18T07:37:57;100173.53;;;-0.17;100.00
12676;BME280;63820;65.654;21.944;2023-03-18T07:40:41;100184.59;;;-0.14;100.00
12676;BME280;63820;65.654;21.944;2023-03-18T07:43:25;100182.03;;;-0.14;100.00
12676;BME280;63820;65.654;21.944;2023-03-18T07:46:10;100169.25;;;-0.14;100.00
12676;BME280;63820;65.654;21.944;2023-03-18T07:48:54;100163.25;;;-0.10;100.00
12676;BME280;63820;65.654;21.944;2023-03-18T07:51:38;100159.00;;;-0.11;100.00
12676;BME280;63820;65.654;21.944;2023-03-18T07:54:23;100160.69;;;-0.08;100.00
12676;BME280;63820;65.654;21.944;2023-03-18T07:57:08;100150.44;;;-0.04;100.00
12676;BME280;63820;65.654;21.944;2023-03-18T07:59:53;100147.81;;;0.03;100.00
12676;BME280;63820;65.654;21.944;2023-03-18T08:03:36;61768.44;;;-142.54;100.00
12676;BME280;63820;65.654;21.944;2023-03-18T08:07:19;61768.44;;;-142.54;100.00
12676;BME280;63820;65.654;21.944;2023-03-18T08:11:02;61768.44;;;-142.54;100.00
12676;BME280;63820;65.654;21.944;2023-03-18T08:14:45;61768.44;;;-142.54;100.00
12676;BME280;63820;65.654;21.944;2023-03-18T08:18:08;100147.81;;;0.03;100.00
12676;BME280;63820;65.654;21.944;2023-03-18T08:21:50;61768.44;;;-142.54;100.00
12676;BME280;63820;65.654;21.944;2023-03-18T08:25:34;61768.44;;;-142.54;100.00
12676;BME280;63820;65.654;21.944;2023-03-18T08:29:17;61768.44;;;-142.54;100.00
12676;BME280;63820;65.654;21.944;2023-03-18T08:33:00;61768.44;;;-142.54;100.00
12676;BME280;63820;65.654;21.944;2023-03-18T08:36:45;61768.44;;;-142.54;100.00
12676;BME280;63820;65.654;21.944;2023-03-18T08:40:28;61768.44;;;-142.54;100.00
12676;BME280;63820;65.654;21.944;2023-03-18T08:44:10;61768.44;;;-142.54;100.00
12676;BME280;63820;65.654;21.944;2023-03-18T08:47:53;61768.44;;;-142.54;100.00
12676;BME280;63820;65.654;21.944;2023-03-18T08:51:29;61768.44;;;-142.54;100.00
12676;BME280;63820;65.654;21.944;2023-03-18T08:54:13;61768.44;;;-142.54;100.00
12676;BME280;63820;65.654;21.944;2023-03-18T08:57:57;61768.44;;;-142.54;100.00
12676;BME280;63820;65.654;21.944;2023-03-18T09:01:24;61768.44;;;-142.54;100.00
12676;BME280;63820;65.654;21.944;2023-03-18T09:04:08;61768.44;;;-142.54;100.00
12676;BME280;63820;65.654;21.944;2023-03-18T09:07:23;61768.44;;;-142.54;100.00
12676;BME280;63820;65.654;21.944;2023-03-18T09:11:06;61768.44;;;-142.54;100.00
12676;BME280;63820;65.654;21.944;2023-03-18T09:14:48;61768.44;;;-142.54;100.00
12676;BME280;63820;65.654;21.944;2023-03-18T09:18:31;61768.44;;;-142.54;100.00
12676;BME280;63820;65.654;21.944;2023-03-18T09:21:16;61768.44;;;-142.54;100.00
12676;BME280;63820;65.654;21.944;2023-03-18T09:24:00;61768.44;;;-142.54;100.00
12676;BME280;63820;65.654;21.944;2023-03-18T09:26:45;61768.44;;;-142.54;100.00
12676;BME280;63820;65.654;21.944;2023-03-18T09:29:30;61768.44;;;-142.54;100.00
12676;BME280;63820;65.654;21.944;2023-03-18T09:32:14;61768.44;;;-142.54;100.00
12676;BME280;63820;65.654;21.944;2023-03-18T09:35:59;61768.44;;;-142.54;100.00
12676;BME280;63820;65.654;21.944;2023-03-18T09:38:44;61768.44;;;-142.54;100.00
12676;BME280;63820;65.654;21.944;2023-03-18T09:44:41;61768.44;;;-142.54;100.00
12676;BME280;63820;65.654;21.944;2023-03-18T09:56:25;61768.44;;;-142.54;100.00
12676;BME280;63820;65.654;21.944;2023-03-18T09:59:43;61768.44;;;-142.54;100.00
12676;BME280;63820;65.654;21.944;2023-03-18T10:02:33;61768.44;;;-142.54;100.00
12676;BME280;63820;65.654;21.944;2023-03-18T10:05:31;61768.44;;;-142.54;100.00
12676;BME280;63820;65.654;21.944;2023-03-18T10:11:43;61768.44;;;-142.54;100.00
12676;BME280;63820;65.654;21.944;2023-03-18T10:14:48;61768.44;;;-142.54;100.00
12676;BME280;63820;65.654;21.944;2023-03-18T10:17:39;61768.44;;;-142.54;100.00
12676;BME280;63820;65.654;21.944;2023-03-18T10:20:34;61768.44;;;-142.54;100.00
12676;BME280;63820;65.654;21.944;2023-03-18T10:26:19;61768.44;;;-142.54;100.00
12676;BME280;63820;65.654;21.944;2023-03-18T10:29:20;61768.44;;;-142.54;100.00
12676;BME280;63820;65.654;21.944;2023-03-18T10:36:04;61768.44;;;-142.54;100.00
12676;BME280;63820;65.654;21.944;2023-03-18T10:38:27;61768.44;;;-142.54;100.00
12676;BME280;63820;65.654;21.944;2023-03-18T10:41:22;61768.44;;;-142.54;100.00
12676;BME280;63820;65.654;21.944;2023-03-18T10:44:31;61768.44;;;-142.54;100.00
12676;BME280;63820;65.654;21.944;2023-03-18T10:47:31;61768.44;;;-142.54;100.00
12676;BME280;63820;65.654;21.944;2023-03-18T10:50:24;61768.44;;;-142.54;100.00
12676;BME280;63820;65.654;21.944;2023-03-18T10:53:18;61768.44;;;-142.54;100.00
12676;BME280;63820;65.654;21.944;2023-03-18T10:56:07;61768.44;;;-142.54;100.00
12676;BME280;63820;65.654;21.944;2023-03-18T10:58:52;61768.44;;;-142.54;100.00
12676;BME280;63820;65.654;21.944;2023-03-18T11:01:37;61768.44;;;-142.54;100.00
12676;BME280;63820;65.654;21.944;2023-03-18T11:04:23;61768.44;;;-142.54;100.00
12676;BME280;63820;65.654;21.944;2023-03-18T11:07:13;61768.44;;;-142.54;100.00
12676;BME280;63820;65.654;21.944;2023-03-18T11:10:15;61768.44;;;-142.54;100.00
12676;BME280;63820;65.654;21.944;2023-03-18T11:13:01;61768.44;;;-142.54;100.00
12676;BME280;63820;65.654;21.944;2023-03-18T11:16:08;61768.44;;;-142.54;100.00
12676;BME280;63820;65.654;21.944;2023-03-18T11:20:18;61768.44;;;-142.54;100.00
12676;BME280;63820;65.654;21.944;2023-03-18T11:24:22;61768.44;;;-142.54;100.00
12676;BME280;63820;65.654;21.944;2023-03-18T11:28:20;61768.44;;;-142.54;100.00
12676;BME280;63820;65.654;21.944;2023-03-18T11:32:04;61768.44;;;-142.54;100.00
12676;BME280;63820;65.654;21.944;2023-03-18T11:35:58;61768.44;;;-142.54;100.00
12676;BME280;63820;65.654;21.944;2023-03-18T11:39:41;61768.44;;;-142.54;100.00
12676;BME280;63820;65.654;21.944;2023-03-18T11:43:24;61768.44;;;-142.54;100.00
12676;BME280;63820;65.654;21.944;2023-03-18T11:47:12;61768.44;;;-142.54;100.00
12676;BME280;63820;65.654;21.944;2023-03-18T11:55:23;61768.44;;;-142.54;100.00
12676;BME280;63820;65.654;21.944;2023-03-18T11:59:31;61768.44;;;-142.54;100.00
12676;BME280;63820;65.654;21.944;2023-03-18T12:15:46;61768.44;;;-142.54;100.00
12676;BME280;63820;65.654;21.944;2023-03-18T12:27:36;61768.44;;;-142.54;100.00
12676;BME280;63820;65.654;21.944;2023-03-18T12:35:33;61768.44;;;-142.54;100.00
12676;BME280;63820;65.654;21.944;2023-03-18T12:43:21;61768.44;;;-142.54;100.00
12676;BME280;63820;65.654;21.944;2023-03-18T12:47:31;61768.44;;;-142.54;100.00
12676;BME280;63820;65.654;21.944;2023-03-18T12:51:24;61768.44;;;-142.54;100.00
12676;BME280;63820;65.654;21.944;2023-03-18T13:02:59;61768.44;;;-142.54;100.00
12676;BME280;63820;65.654;21.944;2023-03-18T13:06:53;61768.44;;;-142.54;100.00
12676;BME280;63820;65.654;21.944;2023-03-18T13:10:46;61768.44;;;-142.54;100.00
12676;BME280;63820;65.654;21.944;2023-03-18T13:14:40;61768.44;;;-142.54;100.00
12676;BME280;63820;65.654;21.944;2023-03-18T13:18:43;61768.44;;;-142.54;100.00
12676;BME280;63820;65.654;21.944;2023-03-18T13:35:08;61768.44;;;-142.54;100.00
12676;BME280;63820;65.654;21.944;2023-03-18T13:39:16;61768.44;;;-142.54;100.00
12676;BME280;63820;65.654;21.944;2023-03-18T13:43:09;61768.44;;;-142.54;100.00
12676;BME280;63820;65.654;21.944;2023-03-18T13:46:56;61768.44;;;-142.54;100.00
12676;BME280;63820;65.654;21.944;2023-03-18T13:50:44;61768.44;;;-142.54;100.00
12676;BME280;63820;65.654;21.944;2023-03-18T13:54:32;61768.44;;;-142.54;100.00
12676;BME280;63820;65.654;21.944;2023-03-18T13:58:33;61768.44;;;-142.54;100.00
12676;BME280;63820;65.654;21.944;2023-03-18T14:10:20;61768.44;;;-142.54;100.00
12676;BME280;63820;65.654;21.944;2023-03-18T14:18:34;61768.44;;;-142.54;100.00
12676;BME280;63820;65.654;21.944;2023-03-18T14:22:32;61768.44;;;-142.54;100.00
12676;BME280;63820;65.654;21.944;2023-03-18T14:26:21;61768.44;;;-142.54;100.00
12676;BME280;63820;65.654;21.944;2023-03-18T14:30:25;61768.44;;;-142.54;100.00
12676;BME280;63820;65.654;21.944;2023-03-18T14:41:45;61768.44;;;-142.54;100.00
12676;BME280;63820;65.654;21.944;2023-03-18T14:45:49;61768.44;;;-142.54;100.00
12676;BME280;63820;65.654;21.944;2023-03-18T14:54:13;61768.44;;;-142.54;100.00
12676;BME280;63820;65.654;21.944;2023-03-18T14:57:38;61768.44;;;-142.54;100.00
12676;BME280;63820;65.654;21.944;2023-03-18T15:01:22;61768.44;;;-142.54;100.00
12676;BME280;63820;65.654;21.944;2023-03-18T15:05:12;61768.44;;;-142.54;100.00
12676;BME280;63820;65.654;21.944;2023-03-18T15:12:42;61768.44;;;-142.54;100.00
12676;BME280;63820;65.654;21.944;2023-03-18T15:16:25;61768.44;;;-142.54;100.00
12676;BME280;63820;65.654;21.944;2023-03-18T15:20:10;61768.44;;;-142.54;100.00
12676;BME280;63820;65.654;21.944;2023-03-18T15:23:55;61768.44;;;-142.54;100.00
12676;BME280;63820;65.654;21.944;2023-03-18T15:27:39;61768.44;;;-142.54;100.00
12676;BME280;63820;65.654;21.944;2023-03-18T15:31:31;61768.44;;;-142.54;100.00
12676;BME280;63820;65.654;21.944;2023-03-18T15:35:27;61768.44;;;-142.54;100.00
12676;BME280;63820;65.654;21.944;2023-03-18T15:39:36;61768.44;;;-142.54;100.00
12676;BME280;63820;65.654;21.944;2023-03-18T15:47:29;61768.44;;;-142.54;100.00
12676;BME280;63820;65.654;21.944;2023-03-18T16:03:16;61768.44;;;-142.54;100.00
12676;BME280;63820;65.654;21.944;2023-03-18T16:07:00;61768.44;;;-142.54;100.00
12676;BME280;63820;65.654;21.944;2023-03-18T16:10:43;61768.44;;;-142.54;100.00
12676;BME280;63820;65.654;21.944;2023-03-18T16:14:30;61768.44;;;-142.54;100.00
12676;BME280;63820;65.654;21.944;2023-03-18T16:18:18;61768.44;;;-142.54;100.00
12676;BME280;63820;65.654;21.944;2023-03-18T16:22:00;61768.44;;;-142.54;100.00
12676;BME280;63820;65.654;21.944;2023-03-18T16:25:52;61768.44;;;-142.54;100.00
12676;BME280;63820;65.654;21.944;2023-03-18T16:29:36;61768.44;;;-142.54;100.00
12676;BME280;63820;65.654;21.944;2023-03-18T16:33:22;61768.44;;;-142.54;100.00
12676;BME280;63820;65.654;21.944;2023-03-18T16:37:12;61768.44;;;-142.54;100.00
12676;BME280;63820;65.654;21.944;2023-03-18T16:40:58;61768.44;;;-142.54;100.00
12676;BME280;63820;65.654;21.944;2023-03-18T16:44:41;61768.44;;;-142.54;100.00
12676;BME280;63820;65.654;21.944;2023-03-18T16:48:24;61768.44;;;-142.54;100.00
12676;BME280;63820;65.654;21.944;2023-03-18T16:52:09;61768.44;;;-142.54;100.00
12676;BME280;63820;65.654;21.944;2023-03-18T16:55:54;61768.44;;;-142.54;100.00
12676;BME280;63820;65.654;21.944;2023-03-18T16:59:37;61768.44;;;-142.54;100.00
12676;BME280;63820;65.654;21.944;2023-03-18T17:03:26;61768.44;;;-142.54;100.00
12676;BME280;63820;65.654;21.944;2023-03-18T17:07:10;61768.44;;;-142.54;100.00
12676;BME280;63820;65.654;21.944;2023-03-18T17:10:54;61768.44;;;-142.54;100.00
12676;BME280;63820;65.654;21.944;2023-03-18T17:14:38;61768.44;;;-142.54;100.00
12676;BME280;63820;65.654;21.944;2023-03-18T17:18:29;61768.44;;;-142.54;100.00
12676;BME280;63820;65.654;21.944;2023-03-18T17:22:21;61768.44;;;-142.54;100.00
12676;BME280;63820;65.654;21.944;2023-03-18T17:26:05;61768.44;;;-142.54;100.00
12676;BME280;63820;65.654;21.944;2023-03-18T17:29:49;61768.44;;;-142.54;100.00
12676;BME280;63820;65.654;21.944;2023-03-18T17:33:32;61768.44;;;-142.54;100.00
12676;BME280;63820;65.654;21.944;2023-03-18T17:37:16;61768.44;;;-142.54;100.00
12676;BME280;63820;65.654;21.944;2023-03-18T17:40:58;61768.44;;;-142.54;100.00
12676;BME280;63820;65.654;21.944;2023-03-18T17:44:41;61768.44;;;-142.54;100.00